Time;durP1;ratioP1;P1;durP2;ratioP2;P2;SDS_P1;SDS_P2;PMS_P1;PMS_P2;Temp;Humidity;BMP_temperature;BMP_pressure;BME280_temperature;BME280_humidity;BME280_pressure;Samples;Min_cycle;Max_cycle;Signal;HPM_P1;HPM_P2
2023/04/20 00:00:47;;;;;;;4.32;1.83;;;5.30;99.90;;;;;;5093934;28;20040;-49
2023/04/20 00:03:13;;;;;;;3.97;2.30;;;5.20;99.90;;;;;;5093384;28;20109;-52
2023/04/20 00:05:40;;;;;;;3.65;2.10;;;5.30;99.90;;;;;;5090508;28;20504;-49
2023/04/20 00:08:07;;;;;;;2.45;1.88;;;5.20;99.90;;;;;;5074381;28;20048;-51
2023/04/20 00:10:34;;;;;;;5.35;2.08;;;5.20;99.90;;;;;;5071982;28;20499;-50
2023/04/20 00:13:01;;;;;;;3.67;2.15;;;5.20;99.90;;;;;;5074006;28;20036;-49
2023/04/20 00:15:28;;;;;;;1.55;1.30;;;5.20;99.90;;;;;;5073238;28;20036;-50
2023/04/20 00:17:55;;;;;;;3.05;1.88;;;5.10;99.90;;;;;;5073483;28;20447;-49
2023/04/20 00:20:23;;;;;;;3.38;2.10;;;5.10;99.90;;;;;;5072909;28;20036;-49
2023/04/20 00:22:50;;;;;;;4.53;2.00;;;5.00;99.90;;;;;;5073887;28;20109;-49
2023/04/20 00:25:16;;;;;;;3.55;2.20;;;5.00;99.90;;;;;;5073011;28;20116;-49
2023/04/20 00:27:43;;;;;;;2.92;2.05;;;5.00;99.90;;;;;;5073502;28;20452;-49
2023/04/20 00:30:12;;;;;;;3.38;2.10;;;5.00;99.90;;;;;;5061407;28;20049;-49
2023/04/20 00:32:38;;;;;;;3.45;2.10;;;5.00;99.90;;;;;;5073022;28;20048;-49
2023/04/20 00:35:06;;;;;;;3.72;1.85;;;4.90;99.90;;;;;;5071510;28;20051;-49
2023/04/20 00:37:33;;;;;;;3.08;2.30;;;5.00;99.90;;;;;;5071249;28;20063;-49
2023/04/20 00:40:00;;;;;;;5.13;2.13;;;5.00;99.90;;;;;;5072878;28;20119;-49
2023/04/20 00:42:26;;;;;;;4.28;2.38;;;4.90;99.90;;;;;;5072015;28;20048;-48
2023/04/20 00:44:53;;;;;;;4.68;2.30;;;4.90;99.90;;;;;;5071911;28;20044;-49
2023/04/20 00:47:21;;;;;;;3.80;2.40;;;4.90;99.90;;;;;;5069552;28;20565;-49
2023/04/20 00:49:48;;;;;;;2.90;2.13;;;4.80;99.90;;;;;;5054761;28;20055;-48
2023/04/20 00:52:15;;;;;;;3.67;2.50;;;4.70;99.90;;;;;;5072634;28;20071;-49
2023/04/20 00:54:42;;;;;;;3.42;2.58;;;4.70;99.90;;;;;;5059081;28;20033;-48
2023/04/20 00:57:12;;;;;;;3.95;2.20;;;4.70;99.90;;;;;;5069350;28;20032;-48
2023/04/20 00:59:41;;;;;;;4.57;2.45;;;4.70;99.90;;;;;;5081510;28;20047;-49
2023/04/20 01:02:08;;;;;;;5.18;2.05;;;4.70;99.90;;;;;;5065098;28;20094;-51
2023/04/20 01:04:35;;;;;;;;;;;4.70;99.90;;;;;;5075191;28;20036;-49
2023/04/20 01:07:02;;;;;;;3.00;2.17;;;4.80;99.90;;;;;;5063923;28;19924;-49
2023/04/20 01:09:29;;;;;;;3.60;2.05;;;4.70;99.90;;;;;;5060804;28;20094;-49
2023/04/20 01:11:56;;;;;;;6.55;2.30;;;4.70;99.90;;;;;;5071888;28;20070;-51
2023/04/20 01:14:22;;;;;;;5.60;2.28;;;4.70;99.90;;;;;;5072617;28;20071;-50
2023/04/20 01:16:50;;;;;;;2.90;2.08;;;4.70;99.90;;;;;;5070633;28;20492;-49
2023/04/20 01:19:17;;;;;;;3.80;2.00;;;4.70;99.90;;;;;;5074200;28;20051;-49
2023/04/20 01:21:44;;;;;;;7.72;2.75;;;4.60;99.90;;;;;;5092906;28;20048;-50
2023/04/20 01:24:11;;;;;;;3.15;1.90;;;4.60;99.90;;;;;;5069482;28;20098;-49
2023/04/20 01:26:38;;;;;;;3.47;2.40;;;4.60;99.90;;;;;;5072248;28;20389;-49
2023/04/20 01:29:06;;;;;;;4.43;2.17;;;4.60;99.90;;;;;;5075011;28;20089;-50
2023/04/20 01:31:33;;;;;;;5.63;2.10;;;4.70;99.90;;;;;;5072227;28;20405;-49
2023/04/20 01:34:00;;;;;;;2.72;1.90;;;4.60;99.90;;;;;;5069921;28;20079;-50
2023/04/20 01:36:26;;;;;;;2.70;1.83;;;4.60;99.90;;;;;;5072191;28;20072;-49
2023/04/20 01:38:53;;;;;;;4.32;2.10;;;4.70;99.90;;;;;;5074857;28;20449;-49
2023/04/20 01:41:20;;;;;;;6.88;2.80;;;4.70;99.90;;;;;;5074211;28;20395;-53
2023/04/20 01:43:47;;;;;;;4.20;2.55;;;4.70;99.90;;;;;;5074367;28;20131;-48
2023/04/20 01:46:14;;;;;;;3.88;2.28;;;4.70;99.90;;;;;;5091980;28;20046;-49
2023/04/20 01:48:41;;;;;;;5.75;2.45;;;4.60;99.90;;;;;;5066255;28;20068;-49
2023/04/20 01:51:08;;;;;;;6.28;1.67;;;4.60;99.90;;;;;;5065743;28;20032;-49
2023/04/20 01:53:35;;;;;;;;;;;4.50;99.90;;;;;;5081266;28;20028;-49
2023/04/20 01:56:02;;;;;;;5.00;2.55;;;4.60;99.90;;;;;;5071488;28;19920;-49
2023/04/20 01:58:28;;;;;;;3.95;2.22;;;4.60;99.90;;;;;;5075402;28;20094;-48
2023/04/20 02:00:55;;;;;;;6.50;2.50;;;4.60;99.90;;;;;;5073613;28;20036;-50
2023/04/20 02:03:22;;;;;;;3.80;2.17;;;4.50;99.90;;;;;;5091808;28;20115;-49
2023/04/20 02:05:49;;;;;;;2.83;2.10;;;4.50;99.90;;;;;;5068688;28;20040;-49
2023/04/20 02:08:16;;;;;;;3.47;1.88;;;4.50;99.90;;;;;;5052702;28;20048;-53
2023/04/20 02:10:43;;;;;;;2.42;1.73;;;4.60;99.90;;;;;;5071472;28;20489;-48
2023/04/20 02:13:10;;;;;;;3.17;1.63;;;4.60;99.90;;;;;;5053885;28;20075;-50
2023/04/20 02:15:37;;;;;;;2.95;1.77;;;4.60;99.90;;;;;;5073567;28;20040;-49
2023/04/20 02:18:04;;;;;;;3.50;2.08;;;4.60;99.90;;;;;;5071581;28;20186;-49
2023/04/20 02:20:31;;;;;;;3.47;2.35;;;4.60;99.90;;;;;;5069522;28;20055;-49
2023/04/20 02:22:58;;;;;;;2.92;1.80;;;4.60;99.90;;;;;;5071626;28;20041;-50
2023/04/20 02:25:25;;;;;;;3.53;2.22;;;4.50;99.90;;;;;;5088699;28;20089;-50
2023/04/20 02:27:51;;;;;;;3.70;1.95;;;4.50;99.90;;;;;;5091252;28;20129;-50
2023/04/20 02:30:18;;;;;;;3.15;1.88;;;4.50;99.90;;;;;;5077679;28;20072;-49
2023/04/20 02:32:45;;;;;;;6.75;3.50;;;4.50;99.90;;;;;;5073047;28;20048;-49
2023/04/20 02:35:15;;;;;;;7.68;4.55;;;4.40;99.90;;;;;;5090683;28;20036;-49
2023/04/20 02:37:43;;;;;;;9.95;5.45;;;4.40;99.90;;;;;;5089538;28;20097;-49
2023/04/20 02:40:11;;;;;;;9.02;5.55;;;4.40;99.90;;;;;;5071557;28;20041;-49
2023/04/20 02:42:39;;;;;;;9.75;5.95;;;4.40;99.90;;;;;;5069657;28;20513;-49
2023/04/20 02:45:09;;;;;;;10.80;6.10;;;4.40;99.90;;;;;;5070009;28;20036;-50
2023/04/20 02:47:36;;;;;;;9.35;6.13;;;4.40;99.90;;;;;;5072669;28;20612;-49
2023/04/20 02:50:04;;;;;;;13.45;5.25;;;4.40;99.90;;;;;;5064349;28;20045;-49
2023/04/20 02:52:38;;;;;;;10.57;6.50;;;4.40;99.90;;;;;;5073637;28;20511;-48
2023/04/20 02:55:05;;;;;;;8.05;5.05;;;4.40;99.90;;;;;;5057901;28;20512;-49
2023/04/20 02:57:32;;;;;;;7.88;5.05;;;4.30;99.90;;;;;;5073318;28;20093;-51
2023/04/20 02:59:59;;;;;;;;;;;4.30;99.90;;;;;;5072752;28;20041;-48
2023/04/20 03:02:38;;;;;;;11.38;5.07;;;4.30;99.90;;;;;;5073444;28;20327;-49
2023/04/20 03:05:06;;;;;;;6.53;4.72;;;4.30;99.90;;;;;;5070396;28;20512;-49
2023/04/20 03:07:40;;;;;;;8.68;5.05;;;4.30;99.90;;;;;;5068022;28;20048;-49
2023/04/20 03:10:10;;;;;;;10.52;5.63;;;4.30;99.90;;;;;;5059899;28;20045;-49
2023/04/20 03:12:49;;;;;;;9.07;5.25;;;4.30;99.90;;;;;;5061985;28;20131;-49
2023/04/20 03:15:31;;;;;;;6.97;4.45;;;4.30;99.90;;;;;;5051299;28;20134;-52
2023/04/20 03:18:52;;;;;;;11.57;5.22;;;4.30;99.90;;;;;;5089054;22;20040;-51
2023/04/20 03:21:44;;;;;;;9.38;5.35;;;4.40;99.90;;;;;;4991015;28;20513;-53
2023/04/20 03:24:10;;;;;;;6.75;3.70;;;4.40;99.90;;;;;;4993135;28;20142;-49
2023/04/20 03:26:38;;;;;;;5.45;3.95;;;4.30;99.90;;;;;;5042890;28;20040;-49
2023/04/20 03:29:12;;;;;;;7.28;4.00;;;4.30;99.90;;;;;;5084949;28;20051;-49
2023/04/20 03:31:39;;;;;;;8.95;4.18;;;4.30;99.90;;;;;;5095700;28;20523;-49
2023/04/20 03:34:07;;;;;;;8.32;4.05;;;4.30;99.90;;;;;;5067778;28;20479;-50
2023/04/20 03:36:35;;;;;;;5.05;3.13;;;4.30;99.90;;;;;;5084615;28;20048;-49
2023/04/20 03:39:02;;;;;;;4.97;3.15;;;4.30;99.90;;;;;;5091993;28;20040;-50
2023/04/20 03:41:30;;;;;;;6.90;4.25;;;4.30;99.90;;;;;;5077720;28;20044;-49
2023/04/20 03:43:56;;;;;;;8.32;4.82;;;4.30;99.90;;;;;;5082913;28;20037;-49
2023/04/20 03:46:23;;;;;;;11.23;4.28;;;4.20;99.90;;;;;;5081808;28;20036;-49
2023/04/20 03:48:50;;;;;;;11.55;4.78;;;4.20;99.90;;;;;;5091186;28;20097;-49
2023/04/20 03:51:17;;;;;;;7.13;4.60;;;4.20;99.90;;;;;;5093738;28;20497;-50
2023/04/20 03:53:43;;;;;;;9.55;5.05;;;4.20;99.90;;;;;;5094044;28;20063;-50
2023/04/20 03:56:12;;;;;;;5.55;4.03;;;4.10;99.90;;;;;;5080860;28;20048;-49
2023/04/20 03:58:39;;;;;;;6.10;3.50;;;4.10;99.90;;;;;;5082520;28;20612;-50
2023/04/20 04:01:12;;;;;;;4.80;3.42;;;4.00;99.90;;;;;;5067770;28;20044;-48
2023/04/20 04:03:43;;;;;;;8.48;3.40;;;4.10;99.90;;;;;;5077627;28;20105;-49
2023/04/20 04:06:11;;;;;;;7.80;3.47;;;4.10;99.90;;;;;;5074856;28;20040;-49
2023/04/20 04:08:37;;;;;;;7.25;3.70;;;4.10;99.90;;;;;;5092799;28;20032;-49
2023/04/20 04:11:04;;;;;;;8.75;3.97;;;4.10;99.90;;;;;;5079084;28;20048;-49
2023/04/20 04:13:31;;;;;;;6.38;4.10;;;4.10;99.90;;;;;;5098428;28;20036;-49
2023/04/20 04:16:01;;;;;;;6.47;3.17;;;4.10;99.90;;;;;;5068966;28;20044;-49
2023/04/20 04:18:31;;;;;;;5.45;3.33;;;4.10;99.90;;;;;;5080268;28;20047;-49
2023/04/20 04:21:02;;;;;;;4.72;2.95;;;4.10;99.90;;;;;;5098796;28;20051;-49
2023/04/20 04:23:28;;;;;;;4.57;3.00;;;4.10;99.90;;;;;;5064826;28;20070;-49
2023/04/20 04:26:05;;;;;;;3.95;2.33;;;4.10;99.90;;;;;;5098525;28;20040;-49
2023/04/20 04:28:35;;;;;;;6.07;2.97;;;4.10;99.90;;;;;;5073799;28;20524;-49
2023/04/20 04:31:13;;;;;;;;;;;4.00;99.90;;;;;;5077688;28;20048;-49
2023/04/20 04:33:39;;;;;;;4.88;2.53;;;4.00;99.90;;;;;;5075648;28;20122;-49
2023/04/20 04:36:09;;;;;;;5.00;2.78;;;4.00;99.90;;;;;;5065659;28;20054;-49
2023/04/20 04:38:36;;;;;;;4.90;2.50;;;4.00;99.90;;;;;;5089842;28;20066;-50
2023/04/20 04:41:03;;;;;;;5.10;3.15;;;4.00;99.90;;;;;;5061330;28;20048;-49
2023/04/20 04:43:32;;;;;;;5.65;3.08;;;4.00;99.90;;;;;;5081808;28;20050;-51
2023/04/20 04:46:10;;;;;;;5.97;2.95;;;4.00;99.90;;;;;;5078132;28;20599;-50
2023/04/20 04:48:39;;;;;;;5.10;2.58;;;4.00;99.90;;;;;;5080917;28;20040;-49
2023/04/20 04:51:06;;;;;;;6.35;3.13;;;4.00;99.90;;;;;;5074392;28;20390;-49
2023/04/20 04:53:34;;;;;;;4.78;2.42;;;4.00;99.90;;;;;;5070982;28;20102;-50
2023/04/20 04:56:01;;;;;;;4.13;2.47;;;4.10;99.90;;;;;;5081306;28;20047;-49
2023/04/20 04:58:28;;;;;;;6.28;3.90;;;4.10;99.90;;;;;;5085664;28;20600;-50
2023/04/20 05:00:54;;;;;;;4.35;3.03;;;4.10;99.90;;;;;;5096955;28;20047;-49
2023/04/20 05:03:21;;;;;;;4.80;2.35;;;4.10;99.90;;;;;;5084747;28;20079;-50
2023/04/20 05:05:48;;;;;;;6.10;3.65;;;4.20;99.90;;;;;;5091369;28;20040;-49
2023/04/20 05:08:15;;;;;;;4.45;3.40;;;4.20;99.90;;;;;;5092566;28;20040;-50
2023/04/20 05:10:42;;;;;;;7.13;4.20;;;4.20;99.90;;;;;;5087885;28;20036;-49
2023/04/20 05:13:08;;;;;;;4.35;3.20;;;4.20;99.90;;;;;;5090567;28;20462;-51
2023/04/20 05:15:35;;;;;;;6.22;3.70;;;4.20;99.90;;;;;;5093167;28;20389;-49
2023/04/20 05:18:02;;;;;;;6.28;4.00;;;4.20;99.90;;;;;;5091202;28;20085;-49
2023/04/20 05:20:29;;;;;;;6.10;3.60;;;4.20;99.90;;;;;;5088624;28;20036;-49
2023/04/20 05:22:55;;;;;;;5.85;3.28;;;4.20;99.90;;;;;;5088637;28;20060;-49
2023/04/20 05:25:22;;;;;;;6.93;4.60;;;4.20;99.90;;;;;;5089402;28;20040;-49
2023/04/20 05:27:49;;;;;;;21.38;4.45;;;4.20;99.90;;;;;;5075798;28;20084;-49
2023/04/20 05:30:16;;;;;;;6.93;3.92;;;4.20;99.90;;;;;;5087904;28;20543;-49
2023/04/20 05:32:47;;;;;;;7.13;3.88;;;4.20;99.90;;;;;;5092453;28;20048;-49
2023/04/20 05:35:18;;;;;;;6.18;4.38;;;4.20;99.90;;;;;;5091705;28;20050;-50
2023/04/20 05:37:46;;;;;;;7.13;4.07;;;4.30;99.90;;;;;;5092162;28;20047;-49
2023/04/20 05:40:14;;;;;;;5.47;4.03;;;4.30;99.90;;;;;;5083617;28;20044;-49
2023/04/20 05:42:40;;;;;;;11.35;4.55;;;4.40;99.90;;;;;;5091928;28;20036;-49
2023/04/20 05:45:08;;;;;;;7.10;4.55;;;4.40;99.90;;;;;;5090793;28;20067;-49
2023/04/20 05:47:34;;;;;;;7.10;4.30;;;4.40;99.90;;;;;;5090475;28;20040;-50
2023/04/20 05:50:01;;;;;;;8.02;3.70;;;4.40;99.90;;;;;;5091841;28;20514;-50
2023/04/20 05:52:28;;;;;;;4.65;3.72;;;4.40;99.90;;;;;;5091825;28;20040;-51
2023/04/20 05:54:55;;;;;;;5.95;3.63;;;4.50;99.90;;;;;;5091990;28;20123;-50
2023/04/20 05:57:23;;;;;;;6.15;3.92;;;4.60;99.90;;;;;;5091857;28;20052;-49
2023/04/20 05:59:50;;;;;;;4.95;2.97;;;4.60;99.90;;;;;;5091405;28;20370;-50
2023/04/20 06:02:17;;;;;;;5.10;3.45;;;4.60;99.90;;;;;;5091718;28;20035;-50
2023/04/20 06:04:44;;;;;;;5.65;3.28;;;4.70;99.90;;;;;;5091865;28;20044;-51
2023/04/20 06:07:11;;;;;;;;;;;4.80;99.90;;;;;;5092115;28;20085;-49
2023/04/20 06:09:37;;;;;;;4.55;3.17;;;4.80;99.90;;;;;;5090422;28;19956;-49
2023/04/20 06:12:04;;;;;;;4.90;3.42;;;4.90;99.90;;;;;;5091798;28;20071;-49
2023/04/20 06:14:31;;;;;;;5.13;3.30;;;5.00;99.90;;;;;;5092128;28;20089;-49
2023/04/20 06:16:58;;;;;;;7.28;4.57;;;5.10;99.90;;;;;;5091531;28;20478;-50
2023/04/20 06:19:24;;;;;;;9.10;4.72;;;5.20;99.90;;;;;;5090875;28;20097;-50
2023/04/20 06:21:51;;;;;;;7.40;4.43;;;5.30;99.90;;;;;;5092396;28;20040;-49
2023/04/20 06:24:18;;;;;;;6.85;4.20;;;5.40;99.90;;;;;;5091536;28;20044;-49
2023/04/20 06:26:44;;;;;;;6.25;4.45;;;5.50;99.90;;;;;;5091390;28;20079;-50
2023/04/20 06:29:11;;;;;;;7.25;4.75;;;5.50;99.90;;;;;;5091536;28;20425;-48
2023/04/20 06:31:38;;;;;;;5.57;4.15;;;5.50;99.90;;;;;;5092357;28;20521;-49
2023/04/20 06:34:05;;;;;;;9.02;5.05;;;5.60;99.90;;;;;;5091327;28;20036;-49
2023/04/20 06:36:31;;;;;;;5.85;4.15;;;5.70;99.90;;;;;;5090983;28;20047;-49
2023/04/20 06:38:58;;;;;;;6.45;3.90;;;5.70;99.90;;;;;;5090630;28;20074;-49
2023/04/20 06:41:25;;;;;;;5.60;4.10;;;5.80;99.90;;;;;;5090487;28;20071;-49
2023/04/20 06:43:52;;;;;;;5.93;3.97;;;5.90;99.90;;;;;;5091796;28;20044;-50
2023/04/20 06:46:18;;;;;;;7.57;4.90;;;6.00;99.90;;;;;;5091264;28;20078;-49
2023/04/20 06:48:45;;;;;;;5.22;3.95;;;6.10;99.90;;;;;;5090885;28;20403;-50
2023/04/20 06:51:13;;;;;;;8.40;4.53;;;5.90;99.90;;;;;;5091080;28;20048;-51
2023/04/20 06:53:39;;;;;;;;;;;6.10;99.90;;;;;;5092114;28;20044;-50
2023/04/20 06:56:06;;;;;;;5.53;3.55;;;6.20;99.90;;;;;;5089614;28;19974;-49
2023/04/20 06:58:33;;;;;;;7.28;4.05;;;5.80;99.90;;;;;;5083264;28;20044;-50
2023/04/20 07:01:01;;;;;;;5.95;3.97;;;6.20;99.90;;;;;;5081473;28;20048;-51
2023/04/20 07:03:27;;;;;;;6.40;4.25;;;6.20;99.90;;;;;;5097740;28;20113;-51
2023/04/20 07:05:54;;;;;;;5.80;3.67;;;6.20;99.90;;;;;;5096562;28;20048;-50
2023/04/20 07:08:21;;;;;;;4.90;3.55;;;6.30;99.90;;;;;;5097426;28;20043;-49
2023/04/20 07:10:48;;;;;;;4.97;3.13;;;6.40;99.90;;;;;;5095868;28;20083;-50
2023/04/20 07:13:15;;;;;;;4.85;3.22;;;6.30;99.90;;;;;;5097977;28;20098;-50
2023/04/20 07:15:44;;;;;;;5.50;3.25;;;6.40;99.90;;;;;;5097033;28;20036;-49
2023/04/20 07:18:10;;;;;;;3.95;2.92;;;6.50;99.90;;;;;;5097309;28;20044;-50
2023/04/20 07:20:37;;;;;;;4.43;3.10;;;6.20;99.90;;;;;;5097353;28;20047;-50
2023/04/20 07:23:04;;;;;;;4.25;2.78;;;6.30;99.90;;;;;;5097975;28;20047;-51
2023/04/20 07:25:31;;;;;;;4.00;2.92;;;6.40;99.90;;;;;;5099491;28;20496;-50
2023/04/20 07:27:58;;;;;;;5.00;2.72;;;6.50;99.90;;;;;;5097652;28;20075;-50
2023/04/20 07:30:25;;;;;;;3.92;2.90;;;6.50;99.90;;;;;;5096814;28;20040;-51
2023/04/20 07:32:52;;;;;;;5.78;3.78;;;6.50;99.90;;;;;;5097188;28;20043;-51
2023/04/20 07:35:18;;;;;;;4.63;3.13;;;6.60;99.90;;;;;;5097543;28;20502;-50
2023/04/20 07:37:46;;;;;;;5.40;3.83;;;6.70;99.90;;;;;;5097333;28;20078;-50
2023/04/20 07:40:13;;;;;;;;;;;6.90;99.90;;;;;;5102209;28;20554;-50
2023/04/20 07:42:40;;;;;;;4.40;2.75;;;6.90;99.90;;;;;;5097198;28;19927;-52
2023/04/20 07:45:08;;;;;;;3.20;2.80;;;7.00;99.90;;;;;;5096783;28;20036;-50
2023/04/20 07:47:36;;;;;;;6.15;3.45;;;7.00;99.90;;;;;;5097505;28;20545;-50
2023/04/20 07:50:06;;;;;;;4.85;3.65;;;7.10;99.90;;;;;;5098959;28;20480;-50
2023/04/20 07:52:33;;;;;;;5.68;3.38;;;7.10;99.90;;;;;;5097185;28;20067;-51
2023/04/20 07:55:00;;;;;;;5.28;3.15;;;7.20;99.90;;;;;;5097963;28;20040;-50
2023/04/20 07:57:27;;;;;;;4.80;2.95;;;7.20;99.90;;;;;;5099998;28;20533;-50
2023/04/20 07:59:54;;;;;;;3.90;2.83;;;7.30;99.90;;;;;;5096830;28;20564;-50
2023/04/20 08:02:21;;;;;;;5.22;2.50;;;7.50;99.90;;;;;;5100191;28;20040;-49
2023/04/20 08:04:48;;;;;;;3.88;3.00;;;7.60;99.90;;;;;;5096800;28;20070;-50
2023/04/20 08:07:16;;;;;;;3.60;2.67;;;7.90;99.90;;;;;;5092835;28;20055;-49
2023/04/20 08:09:43;;;;;;;;;;;8.00;99.90;;;;;;5100705;28;20035;-51
2023/04/20 08:12:09;;;;;;;5.68;3.00;;;8.10;99.90;;;;;;5082824;28;19920;-50
2023/04/20 08:14:37;;;;;;;6.13;2.55;;;8.20;99.90;;;;;;5073186;28;20452;-49
2023/04/20 08:17:03;;;;;;;5.05;2.42;;;8.30;99.90;;;;;;5078406;28;20492;-50
2023/04/20 08:19:30;;;;;;;3.55;2.30;;;8.30;99.90;;;;;;5099964;28;20067;-50
2023/04/20 08:21:57;;;;;;;5.00;2.67;;;8.30;99.90;;;;;;5076343;28;20069;-50
2023/04/20 08:24:23;;;;;;;3.40;2.53;;;8.30;99.90;;;;;;5073720;28;20076;-50
2023/04/20 08:26:50;;;;;;;4.75;2.90;;;8.30;99.90;;;;;;5091823;28;20070;-49
2023/04/20 08:29:17;;;;;;;4.57;2.70;;;8.50;99.90;;;;;;5098123;28;20090;-50
2023/04/20 08:31:44;;;;;;;4.03;2.60;;;8.80;99.90;;;;;;5073168;28;20425;-50
2023/04/20 08:34:11;;;;;;;2.25;1.92;;;9.00;99.90;;;;;;5073575;28;20118;-50
2023/04/20 08:36:38;;;;;;;;;;;9.20;99.90;;;;;;5096161;28;20081;-50
2023/04/20 08:39:11;;;;;;;2.83;2.40;;;9.20;99.90;;;;;;5082785;28;19924;-49
2023/04/20 08:41:38;;;;;;;3.95;2.28;;;9.30;99.90;;;;;;5073304;28;20114;-49
2023/04/20 08:44:06;;;;;;;3.33;1.92;;;9.50;99.90;;;;;;5084387;28;20123;-50
2023/04/20 08:46:33;;;;;;;2.80;1.90;;;9.60;99.90;;;;;;5084796;28;20036;-49
2023/04/20 08:49:01;;;;;;;;;;;9.60;99.90;;;;;;5075150;28;20448;-50
2023/04/20 08:51:29;;;;;;;2.70;1.90;;;9.50;99.90;;;;;;5073265;28;19927;-50
2023/04/20 08:54:04;;;;;;;2.90;1.90;;;9.70;99.90;;;;;;5103358;28;20084;-50
2023/04/20 08:56:36;;;;;;;2.70;1.90;;;9.90;99.90;;;;;;5093208;28;20044;-50
2023/04/20 08:59:04;;;;;;;3.45;1.63;;;9.80;99.90;;;;;;5092319;28;20059;-49
2023/04/20 09:01:32;;;;;;;2.92;1.80;;;9.70;99.90;;;;;;5093453;28;20047;-49
2023/04/20 09:04:13;;;;;;;2.28;1.73;;;9.50;99.90;;;;;;5083454;28;20408;-50
2023/04/20 09:06:49;;;;;;;3.58;1.83;;;9.50;99.90;;;;;;5073337;28;20036;-50
2023/04/20 09:09:16;;;;;;;4.57;2.20;;;9.70;99.90;;;;;;5082840;28;20105;-50
2023/04/20 09:11:43;;;;;;;2.05;1.63;;;9.80;99.90;;;;;;5092963;28;20089;-50
2023/04/20 09:14:12;;;;;;;3.15;1.88;;;9.80;99.90;;;;;;5091815;28;20040;-50
2023/04/20 09:19:39;;;;;;;1.92;1.50;;;9.90;99.90;;;;;;5028113;28;20038;-50
2023/04/20 09:22:06;;;;;;;2.35;1.65;;;10.20;99.90;;;;;;4998630;28;20100;-50
2023/04/20 09:24:34;;;;;;;4.03;1.70;;;10.30;99.90;;;;;;5012495;28;20050;-48
2023/04/20 09:27:22;;;;;;;5.78;1.85;;;10.50;99.90;;;;;;5011589;28;20045;-49
2023/04/20 09:29:57;;;;;;;1.70;1.60;;;10.40;99.90;;;;;;5012315;28;20147;-48
2023/04/20 09:32:25;;;;;;;1.55;1.45;;;10.50;99.90;;;;;;5022592;28;20449;-48
2023/04/20 09:34:52;;;;;;;1.85;1.60;;;10.30;99.90;;;;;;5030171;28;20132;-48
2023/04/20 09:37:19;;;;;;;2.35;1.70;;;10.30;99.90;;;;;;5014812;28;20049;-52
2023/04/20 09:39:46;;;;;;;1.85;1.40;;;10.30;99.90;;;;;;5023527;28;20065;-52
2023/04/20 09:42:14;;;;;;;1.75;1.20;;;10.30;99.90;;;;;;5028695;28;20074;-48
2023/04/20 09:44:42;;;;;;;2.53;1.83;;;10.30;99.90;;;;;;5011968;28;20053;-54
2023/04/20 09:47:17;;;;;;;2.78;1.90;;;10.10;99.90;;;;;;5030701;28;20176;-51
2023/04/20 09:49:46;;;;;;;3.08;1.80;;;10.10;99.90;;;;;;5030824;28;20053;-47
2023/04/20 09:52:19;;;;;;;2.72;1.70;;;10.20;99.90;;;;;;5032322;28;20548;-51
2023/04/20 09:54:46;;;;;;;1.90;1.35;;;10.20;99.90;;;;;;5025580;28;20092;-52
2023/04/20 09:57:13;;;;;;;1.50;1.33;;;10.20;99.90;;;;;;5031800;28;20502;-51
2023/04/20 09:59:43;;;;;;;3.22;1.95;;;10.00;99.90;;;;;;5029770;28;20080;-51
2023/04/20 10:02:11;;;;;;;3.70;2.30;;;10.00;99.90;;;;;;5030069;28;20494;-51
2023/04/20 10:04:51;;;;;;;7.75;3.17;;;9.90;99.90;;;;;;5031656;28;20037;-52
2023/04/20 10:07:29;;;;;;;3.55;2.60;;;9.80;99.90;;;;;;5031343;28;20075;-50
2023/04/20 10:10:07;;;;;;;3.70;2.80;;;9.80;99.90;;;;;;5031470;28;20041;-50
2023/04/20 10:12:45;;;;;;;;;;;9.80;99.90;;;;;;5027168;28;20108;-49
2023/04/20 10:15:11;;;;;;;4.32;2.60;;;9.90;99.90;;;;;;5024619;28;19929;-49
2023/04/20 10:17:38;;;;;;;3.88;2.53;;;10.00;99.90;;;;;;5031446;28;20049;-51
2023/04/20 10:20:17;;;;;;;3.78;2.75;;;10.30;99.90;;;;;;5030261;28;20099;-48
2023/04/20 10:22:44;;;;;;;3.97;3.10;;;10.50;99.90;;;;;;5031212;28;20517;-47
2023/04/20 10:25:25;;;;;;;5.32;2.70;;;10.60;99.90;;;;;;5012103;28;20068;-48
2023/04/20 10:27:55;;;;;;;7.78;3.47;;;10.50;99.90;;;;;;5030849;28;20653;-51
2023/04/20 10:30:24;;;;;;;5.47;3.10;;;10.40;99.90;;;;;;5030184;28;20053;-52
2023/04/20 10:33:05;;;;;;;4.72;3.00;;;10.30;99.90;;;;;;5031777;28;20491;-54
2023/04/20 10:35:45;;;;;;;3.65;2.70;;;10.40;99.90;;;;;;5025164;28;20477;-47
2023/04/20 10:38:12;;;;;;;3.55;2.65;;;10.40;99.90;;;;;;5029835;28;20096;-47
2023/04/20 10:40:39;;;;;;;3.75;2.72;;;10.50;99.90;;;;;;5026094;28;20065;-50
2023/04/20 10:43:20;;;;;;;4.05;2.75;;;10.30;99.90;;;;;;5031063;28;20045;-48
2023/04/20 10:45:48;;;;;;;4.20;3.08;;;10.30;99.90;;;;;;5031441;28;20045;-52
2023/04/20 10:48:15;;;;;;;4.03;2.25;;;10.30;99.90;;;;;;5024197;28;20049;-54
2023/04/20 10:50:44;;;;;;;3.85;2.80;;;10.30;99.90;;;;;;5030694;28;20053;-49
2023/04/20 10:53:22;;;;;;;3.30;2.60;;;10.40;99.90;;;;;;5030826;28;20068;-50
2023/04/20 10:55:58;;;;;;;;;;;10.40;99.90;;;;;;5025413;28;20396;-51
2023/04/20 10:58:25;;;;;;;4.30;2.60;;;10.50;99.90;;;;;;5018982;28;19925;-49
2023/04/20 11:01:03;;;;;;;4.43;2.83;;;10.60;99.90;;;;;;5010883;28;20454;-48
2023/04/20 11:03:31;;;;;;;;;;;10.40;99.90;;;;;;5012055;28;20038;-51
2023/04/20 11:06:00;;;;;;;3.03;2.47;;;10.60;99.90;;;;;;5019908;28;20365;-52
2023/04/20 11:08:38;;;;;;;5.20;2.67;;;10.60;99.90;;;;;;5030312;28;20045;-51
2023/04/20 11:11:06;;;;;;;3.13;2.58;;;10.60;99.90;;;;;;5030835;28;20073;-49
2023/04/20 11:13:33;;;;;;;3.30;2.63;;;10.40;99.90;;;;;;5026298;28;20038;-49
2023/04/20 11:16:10;;;;;;;3.80;2.88;;;10.40;99.90;;;;;;5028637;28;20076;-49
2023/04/20 11:18:47;;;;;;;2.75;2.47;;;10.40;99.90;;;;;;5025294;28;20045;-49
2023/04/20 11:21:14;;;;;;;5.47;2.72;;;10.40;99.90;;;;;;5030616;28;20103;-54
2023/04/20 11:23:42;;;;;;;4.93;2.88;;;10.40;99.90;;;;;;5029838;28;20080;-48
2023/04/20 11:26:09;;;;;;;6.95;3.05;;;10.40;99.90;;;;;;5030597;28;20037;-49
2023/04/20 11:28:36;;;;;;;3.22;2.78;;;10.40;99.90;;;;;;5020345;28;20045;-47
2023/04/20 11:31:03;;;;;;;3.55;3.03;;;10.20;99.90;;;;;;5028907;28;20438;-49
2023/04/20 11:33:32;;;;;;;3.50;3.10;;;10.40;99.90;;;;;;5030319;28;20042;-48
2023/04/20 11:36:01;;;;;;;2.95;2.65;;;10.40;99.90;;;;;;5029502;28;20076;-47
2023/04/20 11:38:33;;;;;;;3.35;2.58;;;10.50;99.90;;;;;;5021599;28;20042;-48
2023/04/20 11:41:03;;;;;;;3.67;2.92;;;10.70;99.90;;;;;;5031040;28;20072;-49
2023/04/20 11:43:31;;;;;;;4.85;2.92;;;10.90;99.90;;;;;;5034218;28;20045;-48
2023/04/20 11:45:59;;;;;;;6.07;3.28;;;10.80;99.90;;;;;;5011897;28;20038;-51
2023/04/20 11:48:30;;;;;;;3.88;3.15;;;11.00;99.90;;;;;;5031919;28;20037;-49
2023/04/20 11:50:57;;;;;;;3.20;2.58;;;11.00;99.90;;;;;;5031577;28;20460;-54
2023/04/20 11:53:24;;;;;;;3.67;3.00;;;11.10;99.90;;;;;;5033874;28;20073;-47
2023/04/20 11:55:50;;;;;;;5.03;3.08;;;11.00;99.90;;;;;;5033731;28;20045;-47
2023/04/20 11:58:17;;;;;;;3.53;2.83;;;10.90;99.90;;;;;;5030929;28;20064;-49
2023/04/20 12:00:44;;;;;;;3.85;2.92;;;10.50;99.90;;;;;;5034359;28;20445;-49
2023/04/20 12:03:11;;;;;;;3.35;2.80;;;10.10;99.90;;;;;;5033681;28;20068;-48
2023/04/20 12:05:37;;;;;;;3.50;3.20;;;9.90;99.90;;;;;;5031735;28;20502;-48
2023/04/20 12:08:07;;;;;;;5.65;3.55;;;9.80;99.90;;;;;;5033722;28;20053;-51
2023/04/20 12:10:34;;;;;;;4.55;3.00;;;9.90;99.90;;;;;;5015607;28;20053;-50
2023/04/20 12:13:00;;;;;;;4.25;2.92;;;10.00;99.90;;;;;;5031816;28;20108;-51
2023/04/20 12:15:27;;;;;;;4.47;3.00;;;10.10;99.90;;;;;;5034120;28;20454;-47
2023/04/20 12:17:54;;;;;;;4.95;3.20;;;10.30;99.90;;;;;;5033261;28;20049;-49
2023/04/20 12:20:21;;;;;;;6.78;3.15;;;10.40;99.90;;;;;;5033535;28;20118;-49
2023/04/20 12:22:48;;;;;;;5.88;3.38;;;10.40;99.90;;;;;;5031075;28;20033;-49
2023/04/20 12:25:15;;;;;;;3.75;2.97;;;10.40;99.90;;;;;;5033677;28;20433;-49
2023/04/20 12:27:41;;;;;;;3.80;2.95;;;10.30;99.90;;;;;;5033163;28;20081;-50
2023/04/20 12:30:08;;;;;;;2.97;2.67;;;10.20;99.90;;;;;;5031555;28;20490;-48
2023/04/20 12:32:35;;;;;;;5.22;3.35;;;10.30;99.90;;;;;;5033250;28;20045;-50
2023/04/20 12:35:02;;;;;;;3.47;3.05;;;10.10;99.90;;;;;;5032723;28;20111;-49
2023/04/20 12:37:29;;;;;;;3.55;2.88;;;10.10;99.90;;;;;;5031331;28;20490;-51
2023/04/20 12:39:56;;;;;;;;;;;10.10;99.90;;;;;;5030390;28;20401;-47
2023/04/20 12:42:23;;;;;;;4.28;3.20;;;10.20;99.90;;;;;;5033019;28;19921;-49
2023/04/20 12:44:53;;;;;;;4.85;3.03;;;10.40;99.90;;;;;;5033737;28;20065;-50
2023/04/20 12:47:19;;;;;;;4.63;3.20;;;10.50;99.90;;;;;;5020024;28;20045;-50
2023/04/20 12:49:46;;;;;;;3.60;2.60;;;10.60;99.90;;;;;;5032930;28;20042;-49
2023/04/20 12:52:13;;;;;;;4.05;2.80;;;10.60;99.90;;;;;;5031862;28;20552;-51
2023/04/20 12:54:40;;;;;;;3.70;2.63;;;10.80;99.90;;;;;;5033349;28;20053;-49
2023/04/20 12:57:09;;;;;;;6.28;3.17;;;10.80;99.90;;;;;;5026017;28;20084;-49
2023/04/20 12:59:36;;;;;;;3.92;2.83;;;10.90;99.90;;;;;;5027510;28;20045;-49
2023/04/20 13:02:03;;;;;;;3.22;2.78;;;11.00;99.90;;;;;;5032833;28;20037;-49
2023/04/20 13:04:30;;;;;;;3.83;2.78;;;11.10;99.90;;;;;;5032275;28;20045;-51
2023/04/20 13:06:57;;;;;;;3.08;2.58;;;11.30;99.90;;;;;;5026873;28;20125;-49